sensor_id;sensor_type;location;lat;lon;timestamp;P1;durP1;ratioP1;P2;durP2;ratioP2
11616;SDS011;5864;52.998;9.068;2023-08-06T00:02:46;5.23;;;3.30;;
11616;SDS011;5864;52.998;9.068;2023-08-06T00:05:31;3.30;;;3.00;;
11616;SDS011;5864;52.998;9.068;2023-08-06T00:08:17;4.67;;;2.90;;
11616;SDS011;5864;52.998;9.068;2023-08-06T00:11:04;2.60;;;2.40;;
11616;SDS011;5864;52.998;9.068;2023-08-06T00:13:49;3.17;;;2.87;;
11616;SDS011;5864;52.998;9.068;2023-08-06T00:16:35;3.30;;;2.67;;
11616;SDS011;5864;52.998;9.068;2023-08-06T00:19:21;3.60;;;2.67;;
11616;SDS011;5864;52.998;9.068;2023-08-06T00:22:07;2.73;;;2.50;;
11616;SDS011;5864;52.998;9.068;2023-08-06T00:24:52;3.70;;;2.40;;
11616;SDS011;5864;52.998;9.068;2023-08-06T00:27:42;3.03;;;2.47;;
11616;SDS011;5864;52.998;9.068;2023-08-06T00:30:27;2.83;;;2.63;;
11616;SDS011;5864;52.998;9.068;2023-08-06T00:33:14;2.70;;;2.50;;
11616;SDS011;5864;52.998;9.068;2023-08-06T00:35:59;4.00;;;2.83;;
11616;SDS011;5864;52.998;9.068;2023-08-06T00:38:45;3.13;;;2.40;;
11616;SDS011;5864;52.998;9.068;2023-08-06T00:41:30;4.10;;;2.50;;
11616;SDS011;5864;52.998;9.068;2023-08-06T00:44:17;2.70;;;2.50;;
11616;SDS011;5864;52.998;9.068;2023-08-06T00:47:03;2.70;;;2.20;;
11616;SDS011;5864;52.998;9.068;2023-08-06T00:49:49;2.60;;;2.40;;
11616;SDS011;5864;52.998;9.068;2023-08-06T00:52:34;3.00;;;2.43;;
11616;SDS011;5864;52.998;9.068;2023-08-06T00:55:20;4.00;;;2.70;;
11616;SDS011;5864;52.998;9.068;2023-08-06T00:58:06;2.90;;;2.60;;
11616;SDS011;5864;52.998;9.068;2023-08-06T01:00:53;3.17;;;2.63;;
11616;SDS011;5864;52.998;9.068;2023-08-06T01:03:38;3.37;;;3.03;;
11616;SDS011;5864;52.998;9.068;2023-08-06T01:06:39;2.73;;;2.30;;
11616;SDS011;5864;52.998;9.068;2023-08-06T01:09:35;3.03;;;2.40;;
11616;SDS011;5864;52.998;9.068;2023-08-06T01:12:31;2.83;;;2.40;;
11616;SDS011;5864;52.998;9.068;2023-08-06T01:15:26;2.70;;;2.50;;
11616;SDS011;5864;52.998;9.068;2023-08-06T01:18:17;2.87;;;2.60;;
11616;SDS011;5864;52.998;9.068;2023-08-06T01:21:04;2.73;;;2.53;;
11616;SDS011;5864;52.998;9.068;2023-08-06T01:23:50;2.83;;;2.57;;
11616;SDS011;5864;52.998;9.068;2023-08-06T01:26:37;2.83;;;2.40;;
11616;SDS011;5864;52.998;9.068;2023-08-06T01:29:28;4.30;;;2.80;;
11616;SDS011;5864;52.998;9.068;2023-08-06T01:32:19;3.20;;;2.50;;
11616;SDS011;5864;52.998;9.068;2023-08-06T01:35:06;2.23;;;2.03;;
11616;SDS011;5864;52.998;9.068;2023-08-06T01:37:56;3.07;;;2.77;;
11616;SDS011;5864;52.998;9.068;2023-08-06T01:40:41;4.43;;;2.67;;
11616;SDS011;5864;52.998;9.068;2023-08-06T01:43:27;2.40;;;2.20;;
11616;SDS011;5864;52.998;9.068;2023-08-06T01:46:13;3.70;;;2.30;;
11616;SDS011;5864;52.998;9.068;2023-08-06T01:48:58;3.27;;;2.70;;
11616;SDS011;5864;52.998;9.068;2023-08-06T01:51:44;2.93;;;2.63;;
11616;SDS011;5864;52.998;9.068;2023-08-06T01:54:31;3.33;;;2.60;;
11616;SDS011;5864;52.998;9.068;2023-08-06T01:57:16;3.00;;;2.70;;
11616;SDS011;5864;52.998;9.068;2023-08-06T02:00:02;5.23;;;3.10;;
11616;SDS011;5864;52.998;9.068;2023-08-06T02:02:48;5.30;;;2.90;;
11616;SDS011;5864;52.998;9.068;2023-08-06T02:05:34;2.90;;;2.70;;
11616;SDS011;5864;52.998;9.068;2023-08-06T02:08:20;4.57;;;2.77;;
11616;SDS011;5864;52.998;9.068;2023-08-06T02:11:07;3.13;;;2.83;;
11616;SDS011;5864;52.998;9.068;2023-08-06T02:13:53;4.27;;;3.10;;
11616;SDS011;5864;52.998;9.068;2023-08-06T02:16:39;3.30;;;2.70;;
11616;SDS011;5864;52.998;9.068;2023-08-06T02:19:24;3.40;;;2.90;;
11616;SDS011;5864;52.998;9.068;2023-08-06T02:22:11;4.27;;;2.90;;
11616;SDS011;5864;52.998;9.068;2023-08-06T02:24:56;4.00;;;2.90;;
11616;SDS011;5864;52.998;9.068;2023-08-06T02:27:43;3.30;;;3.00;;
11616;SDS011;5864;52.998;9.068;2023-08-06T02:30:28;4.03;;;3.40;;
11616;SDS011;5864;52.998;9.068;2023-08-06T02:33:15;3.47;;;3.03;;
11616;SDS011;5864;52.998;9.068;2023-08-06T02:36:00;6.20;;;3.43;;
11616;SDS011;5864;52.998;9.068;2023-08-06T02:38:48;3.40;;;3.10;;
11616;SDS011;5864;52.998;9.068;2023-08-06T02:41:33;3.20;;;2.90;;
11616;SDS011;5864;52.998;9.068;2023-08-06T02:44:20;4.80;;;3.23;;
11616;SDS011;5864;52.998;9.068;2023-08-06T02:47:05;3.50;;;3.00;;
11616;SDS011;5864;52.998;9.068;2023-08-06T02:49:51;3.50;;;3.20;;
11616;SDS011;5864;52.998;9.068;2023-08-06T02:52:37;2.93;;;2.47;;
11616;SDS011;5864;52.998;9.068;2023-08-06T02:55:23;4.70;;;2.93;;
11616;SDS011;5864;52.998;9.068;2023-08-06T02:58:09;4.33;;;3.47;;
11616;SDS011;5864;52.998;9.068;2023-08-06T03:01:03;3.43;;;3.13;;
11616;SDS011;5864;52.998;9.068;2023-08-06T03:03:49;3.10;;;2.80;;
11616;SDS011;5864;52.998;9.068;2023-08-06T03:06:34;3.07;;;2.80;;
11616;SDS011;5864;52.998;9.068;2023-08-06T03:09:20;3.57;;;3.13;;
11616;SDS011;5864;52.998;9.068;2023-08-06T03:12:06;3.77;;;2.83;;
11616;SDS011;5864;52.998;9.068;2023-08-06T03:14:52;3.10;;;2.83;;
11616;SDS011;5864;52.998;9.068;2023-08-06T03:17:39;3.73;;;3.13;;
11616;SDS011;5864;52.998;9.068;2023-08-06T03:20:25;3.60;;;3.30;;
11616;SDS011;5864;52.998;9.068;2023-08-06T03:23:12;3.47;;;3.07;;
11616;SDS011;5864;52.998;9.068;2023-08-06T03:26:00;3.63;;;3.27;;
11616;SDS011;5864;52.998;9.068;2023-08-06T03:28:47;3.60;;;3.30;;
11616;SDS011;5864;52.998;9.068;2023-08-06T03:31:32;4.53;;;3.97;;
11616;SDS011;5864;52.998;9.068;2023-08-06T03:34:19;4.20;;;3.80;;
11616;SDS011;5864;52.998;9.068;2023-08-06T03:37:05;4.60;;;3.37;;
11616;SDS011;5864;52.998;9.068;2023-08-06T03:39:51;4.80;;;4.30;;
11616;SDS011;5864;52.998;9.068;2023-08-06T03:42:36;4.37;;;3.87;;
11616;SDS011;5864;52.998;9.068;2023-08-06T03:45:22;5.93;;;4.80;;
11616;SDS011;5864;52.998;9.068;2023-08-06T03:48:08;6.37;;;5.33;;
11616;SDS011;5864;52.998;9.068;2023-08-06T03:50:54;5.60;;;4.80;;
11616;SDS011;5864;52.998;9.068;2023-08-06T03:53:41;5.93;;;4.63;;
11616;SDS011;5864;52.998;9.068;2023-08-06T03:56:26;5.47;;;4.93;;
11616;SDS011;5864;52.998;9.068;2023-08-06T03:59:12;7.87;;;5.13;;
11616;SDS011;5864;52.998;9.068;2023-08-06T04:01:58;6.77;;;5.97;;
11616;SDS011;5864;52.998;9.068;2023-08-06T04:04:43;6.70;;;5.50;;
11616;SDS011;5864;52.998;9.068;2023-08-06T04:07:30;6.80;;;5.93;;
11616;SDS011;5864;52.998;9.068;2023-08-06T04:10:16;6.43;;;5.50;;
11616;SDS011;5864;52.998;9.068;2023-08-06T04:13:01;6.87;;;5.50;;
11616;SDS011;5864;52.998;9.068;2023-08-06T04:15:47;5.47;;;4.97;;
11616;SDS011;5864;52.998;9.068;2023-08-06T04:18:32;7.30;;;6.30;;
11616;SDS011;5864;52.998;9.068;2023-08-06T04:21:18;7.27;;;6.13;;
11616;SDS011;5864;52.998;9.068;2023-08-06T04:24:05;8.13;;;6.43;;
11616;SDS011;5864;52.998;9.068;2023-08-06T04:26:50;7.00;;;6.30;;
11616;SDS011;5864;52.998;9.068;2023-08-06T04:29:37;8.50;;;6.87;;
11616;SDS011;5864;52.998;9.068;2023-08-06T04:32:22;9.97;;;6.60;;
11616;SDS011;5864;52.998;9.068;2023-08-06T04:35:09;9.60;;;6.60;;
11616;SDS011;5864;52.998;9.068;2023-08-06T04:37:54;6.80;;;5.93;;
11616;SDS011;5864;52.998;9.068;2023-08-06T04:40:41;9.00;;;6.40;;
11616;SDS011;5864;52.998;9.068;2023-08-06T04:43:28;7.43;;;6.03;;
11616;SDS011;5864;52.998;9.068;2023-08-06T04:46:13;7.53;;;5.67;;
11616;SDS011;5864;52.998;9.068;2023-08-06T04:48:59;8.30;;;5.80;;
11616;SDS011;5864;52.998;9.068;2023-08-06T04:51:44;9.00;;;6.30;;
11616;SDS011;5864;52.998;9.068;2023-08-06T04:54:30;9.53;;;7.27;;
11616;SDS011;5864;52.998;9.068;2023-08-06T04:57:17;9.13;;;6.43;;
11616;SDS011;5864;52.998;9.068;2023-08-06T05:00:04;7.23;;;6.20;;
11616;SDS011;5864;52.998;9.068;2023-08-06T05:02:51;8.47;;;6.20;;
11616;SDS011;5864;52.998;9.068;2023-08-06T05:05:37;10.97;;;7.50;;
11616;SDS011;5864;52.998;9.068;2023-08-06T05:08:25;8.37;;;7.23;;
11616;SDS011;5864;52.998;9.068;2023-08-06T05:11:11;9.93;;;6.97;;
11616;SDS011;5864;52.998;9.068;2023-08-06T05:13:57;8.73;;;7.13;;
11616;SDS011;5864;52.998;9.068;2023-08-06T05:16:43;9.83;;;7.13;;
11616;SDS011;5864;52.998;9.068;2023-08-06T05:19:29;7.77;;;6.80;;
11616;SDS011;5864;52.998;9.068;2023-08-06T05:22:14;9.57;;;7.30;;
11616;SDS011;5864;52.998;9.068;2023-08-06T05:25:00;9.50;;;7.77;;
11616;SDS011;5864;52.998;9.068;2023-08-06T05:27:46;8.50;;;6.50;;
11616;SDS011;5864;52.998;9.068;2023-08-06T05:30:33;8.90;;;7.00;;
11616;SDS011;5864;52.998;9.068;2023-08-06T05:33:21;7.87;;;7.03;;
11616;SDS011;5864;52.998;9.068;2023-08-06T05:36:06;7.30;;;6.60;;
11616;SDS011;5864;52.998;9.068;2023-08-06T05:38:52;6.77;;;6.07;;
11616;SDS011;5864;52.998;9.068;2023-08-06T05:41:38;6.73;;;6.13;;
11616;SDS011;5864;52.998;9.068;2023-08-06T05:44:23;6.40;;;5.80;;
11616;SDS011;5864;52.998;9.068;2023-08-06T05:47:11;7.13;;;6.43;;
11616;SDS011;5864;52.998;9.068;2023-08-06T05:49:56;6.67;;;6.00;;
11616;SDS011;5864;52.998;9.068;2023-08-06T05:52:43;7.90;;;6.53;;
11616;SDS011;5864;52.998;9.068;2023-08-06T05:55:28;7.57;;;6.87;;
11616;SDS011;5864;52.998;9.068;2023-08-06T05:58:15;7.80;;;5.77;;
11616;SDS011;5864;52.998;9.068;2023-08-06T06:01:01;8.20;;;7.30;;
11616;SDS011;5864;52.998;9.068;2023-08-06T06:03:47;7.13;;;6.27;;
11616;SDS011;5864;52.998;9.068;2023-08-06T06:06:33;8.67;;;6.70;;
11616;SDS011;5864;52.998;9.068;2023-08-06T06:09:18;9.17;;;6.57;;
11616;SDS011;5864;52.998;9.068;2023-08-06T06:12:05;8.23;;;6.13;;
11616;SDS011;5864;52.998;9.068;2023-08-06T06:14:51;7.87;;;6.43;;
11616;SDS011;5864;52.998;9.068;2023-08-06T06:17:36;6.73;;;6.03;;
11616;SDS011;5864;52.998;9.068;2023-08-06T06:20:23;7.20;;;6.50;;
11616;SDS011;5864;52.998;9.068;2023-08-06T06:23:08;8.03;;;6.23;;
11616;SDS011;5864;52.998;9.068;2023-08-06T06:25:54;6.77;;;6.07;;
11616;SDS011;5864;52.998;9.068;2023-08-06T06:28:40;6.10;;;4.80;;
11616;SDS011;5864;52.998;9.068;2023-08-06T06:31:25;6.93;;;5.90;;
11616;SDS011;5864;52.998;9.068;2023-08-06T06:34:11;6.10;;;5.50;;
11616;SDS011;5864;52.998;9.068;2023-08-06T06:36:58;6.67;;;5.83;;
11616;SDS011;5864;52.998;9.068;2023-08-06T06:39:44;7.67;;;5.90;;
11616;SDS011;5864;52.998;9.068;2023-08-06T06:42:29;6.07;;;5.23;;
11616;SDS011;5864;52.998;9.068;2023-08-06T06:45:15;5.30;;;4.80;;
11616;SDS011;5864;52.998;9.068;2023-08-06T06:48:00;6.47;;;5.87;;
11616;SDS011;5864;52.998;9.068;2023-08-06T06:50:46;6.20;;;5.40;;
11616;SDS011;5864;52.998;9.068;2023-08-06T06:53:33;5.60;;;5.10;;
11616;SDS011;5864;52.998;9.068;2023-08-06T06:56:19;5.40;;;4.90;;
11616;SDS011;5864;52.998;9.068;2023-08-06T06:59:04;5.60;;;5.10;;
11616;SDS011;5864;52.998;9.068;2023-08-06T07:01:50;5.30;;;4.77;;
11616;SDS011;5864;52.998;9.068;2023-08-06T07:04:35;5.40;;;4.90;;
11616;SDS011;5864;52.998;9.068;2023-08-06T07:07:21;5.57;;;4.97;;
11616;SDS011;5864;52.998;9.068;2023-08-06T07:10:08;5.30;;;4.77;;
11616;SDS011;5864;52.998;9.068;2023-08-06T07:12:54;5.97;;;4.80;;
11616;SDS011;5864;52.998;9.068;2023-08-06T07:15:40;5.57;;;4.57;;
11616;SDS011;5864;52.998;9.068;2023-08-06T07:18:26;5.00;;;4.40;;
11616;SDS011;5864;52.998;9.068;2023-08-06T07:21:11;5.37;;;4.83;;
11616;SDS011;5864;52.998;9.068;2023-08-06T07:23:57;5.77;;;4.13;;
11616;SDS011;5864;52.998;9.068;2023-08-06T07:26:45;4.97;;;4.47;;
11616;SDS011;5864;52.998;9.068;2023-08-06T07:29:31;4.60;;;4.20;;
11616;SDS011;5864;52.998;9.068;2023-08-06T07:32:16;4.50;;;4.10;;
11616;SDS011;5864;52.998;9.068;2023-08-06T07:35:02;4.50;;;4.10;;
11616;SDS011;5864;52.998;9.068;2023-08-06T07:37:48;4.13;;;3.67;;
11616;SDS011;5864;52.998;9.068;2023-08-06T07:40:35;4.20;;;3.27;;
11616;SDS011;5864;52.998;9.068;2023-08-06T07:43:22;3.50;;;3.20;;
11616;SDS011;5864;52.998;9.068;2023-08-06T07:46:07;3.60;;;3.30;;
11616;SDS011;5864;52.998;9.068;2023-08-06T07:48:53;4.40;;;3.63;;
11616;SDS011;5864;52.998;9.068;2023-08-06T07:51:38;3.60;;;3.30;;
11616;SDS011;5864;52.998;9.068;2023-08-06T07:54:24;3.47;;;3.17;;
11616;SDS011;5864;52.998;9.068;2023-08-06T07:57:09;5.73;;;4.00;;
11616;SDS011;5864;52.998;9.068;2023-08-06T07:59:56;4.17;;;2.90;;
11616;SDS011;5864;52.998;9.068;2023-08-06T08:02:42;4.63;;;4.03;;
11616;SDS011;5864;52.998;9.068;2023-08-06T08:05:28;4.83;;;3.50;;
11616;SDS011;5864;52.998;9.068;2023-08-06T08:08:14;3.60;;;3.30;;
11616;SDS011;5864;52.998;9.068;2023-08-06T08:10:59;3.50;;;3.20;;
11616;SDS011;5864;52.998;9.068;2023-08-06T08:13:46;3.73;;;3.43;;
11616;SDS011;5864;52.998;9.068;2023-08-06T08:16:32;3.90;;;3.60;;
11616;SDS011;5864;52.998;9.068;2023-08-06T08:19:18;4.97;;;3.57;;
11616;SDS011;5864;52.998;9.068;2023-08-06T08:22:03;4.60;;;3.40;;
11616;SDS011;5864;52.998;9.068;2023-08-06T08:24:50;3.10;;;2.80;;
11616;SDS011;5864;52.998;9.068;2023-08-06T08:27:35;3.23;;;2.93;;
11616;SDS011;5864;52.998;9.068;2023-08-06T08:30:21;3.50;;;3.20;;
11616;SDS011;5864;52.998;9.068;2023-08-06T08:33:09;3.77;;;3.10;;
11616;SDS011;5864;52.998;9.068;2023-08-06T08:35:55;4.03;;;2.97;;
11616;SDS011;5864;52.998;9.068;2023-08-06T08:38:40;3.00;;;2.80;;
11616;SDS011;5864;52.998;9.068;2023-08-06T08:41:27;2.80;;;2.60;;
11616;SDS011;5864;52.998;9.068;2023-08-06T08:44:13;2.50;;;2.30;;
11616;SDS011;5864;52.998;9.068;2023-08-06T08:47:02;2.50;;;2.27;;
11616;SDS011;5864;52.998;9.068;2023-08-06T08:49:49;3.10;;;2.67;;
11616;SDS011;5864;52.998;9.068;2023-08-06T08:52:39;3.60;;;2.80;;
11616;SDS011;5864;52.998;9.068;2023-08-06T08:55:25;2.83;;;2.40;;
11616;SDS011;5864;52.998;9.068;2023-08-06T08:58:11;3.70;;;2.27;;
11616;SDS011;5864;52.998;9.068;2023-08-06T09:00:57;3.03;;;2.40;;
11616;SDS011;5864;52.998;9.068;2023-08-06T09:03:43;2.50;;;2.30;;
11616;SDS011;5864;52.998;9.068;2023-08-06T09:06:31;2.57;;;2.37;;
11616;SDS011;5864;52.998;9.068;2023-08-06T09:09:22;3.13;;;2.47;;
11616;SDS011;5864;52.998;9.068;2023-08-06T09:12:11;2.30;;;2.10;;
11616;SDS011;5864;52.998;9.068;2023-08-06T09:14:58;2.30;;;2.10;;
11616;SDS011;5864;52.998;9.068;2023-08-06T09:17:47;2.73;;;2.13;;
11616;SDS011;5864;52.998;9.068;2023-08-06T09:23:28;3.00;;;2.30;;
11616;SDS011;5864;52.998;9.068;2023-08-06T09:26:14;3.80;;;2.20;;
11616;SDS011;5864;52.998;9.068;2023-08-06T09:28:59;2.20;;;2.10;;
11616;SDS011;5864;52.998;9.068;2023-08-06T09:31:45;2.20;;;2.00;;
11616;SDS011;5864;52.998;9.068;2023-08-06T09:34:32;2.30;;;2.10;;
11616;SDS011;5864;52.998;9.068;2023-08-06T09:37:17;2.53;;;2.30;;
11616;SDS011;5864;52.998;9.068;2023-08-06T09:40:19;4.93;;;2.30;;
11616;SDS011;5864;52.998;9.068;2023-08-06T09:43:10;3.23;;;2.33;;
11616;SDS011;5864;52.998;9.068;2023-08-06T09:45:58;4.00;;;2.03;;
11616;SDS011;5864;52.998;9.068;2023-08-06T09:48:44;3.43;;;1.73;;
11616;SDS011;5864;52.998;9.068;2023-08-06T09:51:30;2.07;;;1.97;;
11616;SDS011;5864;52.998;9.068;2023-08-06T09:54:17;1.93;;;1.80;;
11616;SDS011;5864;52.998;9.068;2023-08-06T09:57:04;2.40;;;2.20;;
11616;SDS011;5864;52.998;9.068;2023-08-06T09:59:50;1.80;;;1.70;;
11616;SDS011;5864;52.998;9.068;2023-08-06T10:02:38;1.97;;;1.80;;
11616;SDS011;5864;52.998;9.068;2023-08-06T10:05:24;2.20;;;2.00;;
11616;SDS011;5864;52.998;9.068;2023-08-06T10:08:11;1.70;;;1.60;;
11616;SDS011;5864;52.998;9.068;2023-08-06T10:10:56;1.60;;;1.50;;
11616;SDS011;5864;52.998;9.068;2023-08-06T10:13:44;1.83;;;1.73;;
11616;SDS011;5864;52.998;9.068;2023-08-06T10:16:30;2.63;;;1.50;;
11616;SDS011;5864;52.998;9.068;2023-08-06T10:19:16;1.93;;;1.73;;
11616;SDS011;5864;52.998;9.068;2023-08-06T10:22:10;2.13;;;1.60;;
11616;SDS011;5864;52.998;9.068;2023-08-06T10:24:57;2.17;;;1.97;;
11616;SDS011;5864;52.998;9.068;2023-08-06T10:27:53;1.97;;;1.87;;
11616;SDS011;5864;52.998;9.068;2023-08-06T10:30:44;1.70;;;1.53;;
11616;SDS011;5864;52.998;9.068;2023-08-06T10:33:40;2.20;;;1.73;;
11616;SDS011;5864;52.998;9.068;2023-08-06T10:36:27;3.67;;;1.80;;
11616;SDS011;5864;52.998;9.068;2023-08-06T10:39:13;2.10;;;1.90;;
11616;SDS011;5864;52.998;9.068;2023-08-06T10:42:01;1.77;;;1.67;;
11616;SDS011;5864;52.998;9.068;2023-08-06T10:47:58;1.80;;;1.70;;
11616;SDS011;5864;52.998;9.068;2023-08-06T10:50:44;2.20;;;1.80;;
11616;SDS011;5864;52.998;9.068;2023-08-06T10:53:30;1.63;;;1.53;;
11616;SDS011;5864;52.998;9.068;2023-08-06T10:56:16;1.60;;;1.50;;
11616;SDS011;5864;52.998;9.068;2023-08-06T10:59:02;1.80;;;1.70;;
11616;SDS011;5864;52.998;9.068;2023-08-06T11:01:48;1.53;;;1.40;;
11616;SDS011;5864;52.998;9.068;2023-08-06T11:04:35;1.70;;;1.50;;
11616;SDS011;5864;52.998;9.068;2023-08-06T11:07:21;2.80;;;1.50;;
11616;SDS011;5864;52.998;9.068;2023-08-06T11:10:08;2.03;;;1.50;;
11616;SDS011;5864;52.998;9.068;2023-08-06T11:12:54;2.27;;;1.60;;
11616;SDS011;5864;52.998;9.068;2023-08-06T11:15:45;1.63;;;1.53;;
11616;SDS011;5864;52.998;9.068;2023-08-06T11:18:31;1.60;;;1.50;;
11616;SDS011;5864;52.998;9.068;2023-08-06T11:21:19;1.70;;;1.60;;
11616;SDS011;5864;52.998;9.068;2023-08-06T11:24:05;1.70;;;1.60;;
11616;SDS011;5864;52.998;9.068;2023-08-06T11:26:50;1.93;;;1.70;;
11616;SDS011;5864;52.998;9.068;2023-08-06T11:29:36;2.67;;;1.63;;
11616;SDS011;5864;52.998;9.068;2023-08-06T11:32:22;1.70;;;1.60;;
11616;SDS011;5864;52.998;9.068;2023-08-06T11:35:11;2.50;;;1.50;;
11616;SDS011;5864;52.998;9.068;2023-08-06T11:37:59;1.73;;;1.63;;
11616;SDS011;5864;52.998;9.068;2023-08-06T11:40:46;2.27;;;1.63;;
11616;SDS011;5864;52.998;9.068;2023-08-06T11:43:32;2.27;;;2.07;;
11616;SDS011;5864;52.998;9.068;2023-08-06T11:46:18;1.70;;;1.60;;
11616;SDS011;5864;52.998;9.068;2023-08-06T11:49:03;1.83;;;1.60;;
11616;SDS011;5864;52.998;9.068;2023-08-06T11:51:49;1.83;;;1.60;;
11616;SDS011;5864;52.998;9.068;2023-08-06T11:54:36;1.70;;;1.60;;
11616;SDS011;5864;52.998;9.068;2023-08-06T11:57:22;2.23;;;1.60;;
11616;SDS011;5864;52.998;9.068;2023-08-06T12:00:08;3.03;;;1.60;;
11616;SDS011;5864;52.998;9.068;2023-08-06T12:02:55;2.13;;;1.50;;
11616;SDS011;5864;52.998;9.068;2023-08-06T12:05:41;2.47;;;1.60;;
11616;SDS011;5864;52.998;9.068;2023-08-06T12:08:30;1.77;;;1.67;;
11616;SDS011;5864;52.998;9.068;2023-08-06T12:11:20;2.47;;;1.70;;
11616;SDS011;5864;52.998;9.068;2023-08-06T12:14:07;2.13;;;1.47;;
11616;SDS011;5864;52.998;9.068;2023-08-06T12:16:52;2.97;;;1.70;;
11616;SDS011;5864;52.998;9.068;2023-08-06T12:19:39;3.17;;;1.67;;
11616;SDS011;5864;52.998;9.068;2023-08-06T12:22:24;1.80;;;1.70;;
11616;SDS011;5864;52.998;9.068;2023-08-06T12:25:11;2.90;;;1.57;;
11616;SDS011;5864;52.998;9.068;2023-08-06T12:27:58;2.13;;;1.63;;
11616;SDS011;5864;52.998;9.068;2023-08-06T12:30:44;3.27;;;1.90;;
11616;SDS011;5864;52.998;9.068;2023-08-06T12:33:30;2.07;;;1.87;;
11616;SDS011;5864;52.998;9.068;2023-08-06T12:36:15;2.27;;;1.80;;
11616;SDS011;5864;52.998;9.068;2023-08-06T12:39:01;2.00;;;1.80;;
11616;SDS011;5864;52.998;9.068;2023-08-06T12:41:47;2.00;;;1.60;;
11616;SDS011;5864;52.998;9.068;2023-08-06T12:44:33;2.70;;;1.70;;
11616;SDS011;5864;52.998;9.068;2023-08-06T12:47:19;1.50;;;1.40;;
11616;SDS011;5864;52.998;9.068;2023-08-06T12:50:05;1.70;;;1.60;;
11616;SDS011;5864;52.998;9.068;2023-08-06T12:52:51;1.60;;;1.50;;
11616;SDS011;5864;52.998;9.068;2023-08-06T12:55:37;1.93;;;1.60;;
11616;SDS011;5864;52.998;9.068;2023-08-06T12:58:24;1.67;;;1.57;;
11616;SDS011;5864;52.998;9.068;2023-08-06T13:01:11;2.13;;;1.60;;
11616;SDS011;5864;52.998;9.068;2023-08-06T13:03:57;1.90;;;1.70;;
11616;SDS011;5864;52.998;9.068;2023-08-06T13:06:43;2.50;;;1.43;;
11616;SDS011;5864;52.998;9.068;2023-08-06T13:09:28;3.63;;;1.70;;
11616;SDS011;5864;52.998;9.068;2023-08-06T13:12:14;1.90;;;1.80;;
11616;SDS011;5864;52.998;9.068;2023-08-06T13:15:00;1.57;;;1.47;;
11616;SDS011;5864;52.998;9.068;2023-08-06T13:17:47;1.80;;;1.70;;
11616;SDS011;5864;52.998;9.068;2023-08-06T13:20:33;1.70;;;1.60;;
11616;SDS011;5864;52.998;9.068;2023-08-06T13:23:18;2.23;;;1.63;;
11616;SDS011;5864;52.998;9.068;2023-08-06T13:26:04;1.60;;;1.50;;
11616;SDS011;5864;52.998;9.068;2023-08-06T13:28:49;1.60;;;1.50;;
11616;SDS011;5864;52.998;9.068;2023-08-06T13:31:35;1.57;;;1.47;;
11616;SDS011;5864;52.998;9.068;2023-08-06T13:34:23;1.60;;;1.50;;
11616;SDS011;5864;52.998;9.068;2023-08-06T13:37:08;1.70;;;1.53;;
11616;SDS011;5864;52.998;9.068;2023-08-06T13:39:55;1.73;;;1.63;;
11616;SDS011;5864;52.998;9.068;2023-08-06T13:42:40;2.53;;;1.60;;
11616;SDS011;5864;52.998;9.068;2023-08-06T13:45:26;1.63;;;1.53;;
11616;SDS011;5864;52.998;9.068;2023-08-06T13:48:12;2.67;;;1.50;;
11616;SDS011;5864;52.998;9.068;2023-08-06T13:50:58;1.60;;;1.50;;
11616;SDS011;5864;52.998;9.068;2023-08-06T13:53:44;1.60;;;1.50;;
11616;SDS011;5864;52.998;9.068;2023-08-06T13:56:30;1.50;;;1.40;;
11616;SDS011;5864;52.998;9.068;2023-08-06T13:59:16;2.33;;;1.60;;
11616;SDS011;5864;52.998;9.068;2023-08-06T14:02:04;2.07;;;1.50;;
11616;SDS011;5864;52.998;9.068;2023-08-06T14:04:50;1.60;;;1.33;;
11616;SDS011;5864;52.998;9.068;2023-08-06T14:07:37;1.50;;;1.40;;
11616;SDS011;5864;52.998;9.068;2023-08-06T14:10:23;1.50;;;1.40;;
11616;SDS011;5864;52.998;9.068;2023-08-06T14:13:09;1.50;;;1.40;;
11616;SDS011;5864;52.998;9.068;2023-08-06T14:15:54;1.77;;;1.60;;
11616;SDS011;5864;52.998;9.068;2023-08-06T14:18:40;2.17;;;1.60;;
11616;SDS011;5864;52.998;9.068;2023-08-06T14:21:26;2.30;;;1.60;;
11616;SDS011;5864;52.998;9.068;2023-08-06T14:24:12;1.73;;;1.50;;
11616;SDS011;5864;52.998;9.068;2023-08-06T14:26:58;1.70;;;1.60;;
11616;SDS011;5864;52.998;9.068;2023-08-06T14:29:44;2.50;;;1.80;;
11616;SDS011;5864;52.998;9.068;2023-08-06T14:32:29;2.03;;;1.80;;
11616;SDS011;5864;52.998;9.068;2023-08-06T14:35:15;2.10;;;1.77;;
11616;SDS011;5864;52.998;9.068;2023-08-06T14:38:00;2.60;;;2.30;;
11616;SDS011;5864;52.998;9.068;2023-08-06T14:40:47;3.60;;;2.20;;
11616;SDS011;5864;52.998;9.068;2023-08-06T14:43:34;2.50;;;2.30;;
11616;SDS011;5864;52.998;9.068;2023-08-06T14:46:20;4.60;;;2.70;;
11616;SDS011;5864;52.998;9.068;2023-08-06T14:49:06;2.80;;;2.50;;
11616;SDS011;5864;52.998;9.068;2023-08-06T14:51:51;4.07;;;2.70;;
11616;SDS011;5864;52.998;9.068;2023-08-06T14:54:37;2.97;;;2.20;;
11616;SDS011;5864;52.998;9.068;2023-08-06T14:57:24;2.30;;;2.10;;
11616;SDS011;5864;52.998;9.068;2023-08-06T15:00:12;3.30;;;2.27;;
11616;SDS011;5864;52.998;9.068;2023-08-06T15:02:58;5.17;;;2.80;;
11616;SDS011;5864;52.998;9.068;2023-08-06T15:05:44;3.70;;;2.57;;
11616;SDS011;5864;52.998;9.068;2023-08-06T15:08:31;2.87;;;2.63;;
11616;SDS011;5864;52.998;9.068;2023-08-06T15:11:17;4.27;;;2.23;;
11616;SDS011;5864;52.998;9.068;2023-08-06T15:14:04;3.30;;;2.27;;
11616;SDS011;5864;52.998;9.068;2023-08-06T15:16:50;2.50;;;2.30;;
11616;SDS011;5864;52.998;9.068;2023-08-06T15:19:37;2.57;;;2.23;;
11616;SDS011;5864;52.998;9.068;2023-08-06T15:22:22;2.97;;;2.50;;
11616;SDS011;5864;52.998;9.068;2023-08-06T15:25:08;3.43;;;2.60;;
11616;SDS011;5864;52.998;9.068;2023-08-06T15:27:53;3.90;;;2.50;;
11616;SDS011;5864;52.998;9.068;2023-08-06T15:30:40;2.70;;;2.40;;
11616;SDS011;5864;52.998;9.068;2023-08-06T15:33:33;3.10;;;2.70;;
11616;SDS011;5864;52.998;9.068;2023-08-06T15:36:19;2.70;;;2.47;;
11616;SDS011;5864;52.998;9.068;2023-08-06T15:39:04;2.47;;;2.10;;
11616;SDS011;5864;52.998;9.068;2023-08-06T15:41:50;4.10;;;2.40;;
11616;SDS011;5864;52.998;9.068;2023-08-06T15:44:35;2.40;;;2.00;;
11616;SDS011;5864;52.998;9.068;2023-08-06T15:47:22;2.93;;;2.23;;
11616;SDS011;5864;52.998;9.068;2023-08-06T15:50:08;2.73;;;2.10;;
11616;SDS011;5864;52.998;9.068;2023-08-06T15:52:54;3.03;;;2.40;;
11616;SDS011;5864;52.998;9.068;2023-08-06T15:55:39;2.83;;;2.37;;
11616;SDS011;5864;52.998;9.068;2023-08-06T15:58:25;3.43;;;2.13;;
11616;SDS011;5864;52.998;9.068;2023-08-06T16:01:11;3.73;;;2.80;;
11616;SDS011;5864;52.998;9.068;2023-08-06T16:03:59;3.53;;;2.60;;
11616;SDS011;5864;52.998;9.068;2023-08-06T16:06:45;4.43;;;2.47;;
11616;SDS011;5864;52.998;9.068;2023-08-06T16:09:30;2.60;;;2.40;;
11616;SDS011;5864;52.998;9.068;2023-08-06T16:12:16;3.77;;;2.60;;
11616;SDS011;5864;52.998;9.068;2023-08-06T16:15:03;3.53;;;2.50;;
11616;SDS011;5864;52.998;9.068;2023-08-06T16:17:49;2.63;;;2.27;;
11616;SDS011;5864;52.998;9.068;2023-08-06T16:20:36;3.50;;;2.50;;
11616;SDS011;5864;52.998;9.068;2023-08-06T16:23:26;3.87;;;2.20;;
11616;SDS011;5864;52.998;9.068;2023-08-06T16:26:12;2.60;;;2.40;;
11616;SDS011;5864;52.998;9.068;2023-08-06T16:28:57;2.53;;;2.33;;
11616;SDS011;5864;52.998;9.068;2023-08-06T16:31:43;5.20;;;2.77;;
11616;SDS011;5864;52.998;9.068;2023-08-06T16:34:28;3.20;;;2.30;;
11616;SDS011;5864;52.998;9.068;2023-08-06T16:37:16;3.07;;;2.67;;
11616;SDS011;5864;52.998;9.068;2023-08-06T16:40:03;2.87;;;2.50;;
11616;SDS011;5864;52.998;9.068;2023-08-06T16:42:49;4.30;;;2.87;;
11616;SDS011;5864;52.998;9.068;2023-08-06T16:45:35;3.67;;;2.80;;
11616;SDS011;5864;52.998;9.068;2023-08-06T16:48:21;8.27;;;2.70;;
11616;SDS011;5864;52.998;9.068;2023-08-06T16:51:10;3.20;;;2.80;;
11616;SDS011;5864;52.998;9.068;2023-08-06T16:53:58;5.50;;;2.97;;
11616;SDS011;5864;52.998;9.068;2023-08-06T16:56:43;4.23;;;3.20;;
11616;SDS011;5864;52.998;9.068;2023-08-06T16:59:29;3.73;;;2.60;;
11616;SDS011;5864;52.998;9.068;2023-08-06T17:02:15;3.17;;;2.73;;
11616;SDS011;5864;52.998;9.068;2023-08-06T17:05:00;3.00;;;2.67;;